sensor_id;sensor_type;location;lat;lon;timestamp;P1;durP1;ratioP1;P2;durP2;ratioP2
46308;SDS011;32037;50.820;6.494;2023-10-19T00:00:49;3.73;;;3.30;;
46308;SDS011;32037;50.820;6.494;2023-10-19T00:03:23;3.03;;;2.60;;
46308;SDS011;32037;50.820;6.494;2023-10-19T00:05:50;3.07;;;2.77;;
46308;SDS011;32037;50.820;6.494;2023-10-19T00:08:18;2.77;;;2.30;;
46308;SDS011;32037;50.820;6.494;2023-10-19T00:10:47;4.60;;;3.50;;
46308;SDS011;32037;50.820;6.494;2023-10-19T00:13:28;2.43;;;2.23;;
46308;SDS011;32037;50.820;6.494;2023-10-19T00:15:57;2.93;;;2.50;;
46308;SDS011;32037;50.820;6.494;2023-10-19T00:18:25;3.17;;;2.87;;
46308;SDS011;32037;50.820;6.494;2023-10-19T00:20:54;4.57;;;2.90;;
46308;SDS011;32037;50.820;6.494;2023-10-19T00:23:26;3.10;;;2.83;;
46308;SDS011;32037;50.820;6.494;2023-10-19T00:25:59;4.27;;;2.23;;
46308;SDS011;32037;50.820;6.494;2023-10-19T00:28:36;2.87;;;2.37;;
46308;SDS011;32037;50.820;6.494;2023-10-19T00:31:05;3.50;;;3.20;;
46308;SDS011;32037;50.820;6.494;2023-10-19T00:33:35;3.83;;;3.27;;
46308;SDS011;32037;50.820;6.494;2023-10-19T00:36:06;4.53;;;2.97;;
46308;SDS011;32037;50.820;6.494;2023-10-19T00:38:35;3.10;;;2.73;;
46308;SDS011;32037;50.820;6.494;2023-10-19T00:41:09;2.67;;;2.40;;
46308;SDS011;32037;50.820;6.494;2023-10-19T00:43:45;5.30;;;3.00;;
46308;SDS011;32037;50.820;6.494;2023-10-19T00:46:16;2.80;;;2.60;;
46308;SDS011;32037;50.820;6.494;2023-10-19T00:48:53;3.70;;;3.23;;
46308;SDS011;32037;50.820;6.494;2023-10-19T00:51:24;3.03;;;2.40;;
46308;SDS011;32037;50.820;6.494;2023-10-19T00:54:08;4.03;;;2.93;;
46308;SDS011;32037;50.820;6.494;2023-10-19T00:56:42;2.97;;;2.67;;
46308;SDS011;32037;50.820;6.494;2023-10-19T00:59:16;1.87;;;1.70;;
46308;SDS011;32037;50.820;6.494;2023-10-19T01:01:49;2.53;;;2.27;;
46308;SDS011;32037;50.820;6.494;2023-10-19T01:04:21;2.70;;;2.50;;
46308;SDS011;32037;50.820;6.494;2023-10-19T01:06:51;2.00;;;1.80;;
46308;SDS011;32037;50.820;6.494;2023-10-19T01:09:31;3.30;;;2.20;;
46308;SDS011;32037;50.820;6.494;2023-10-19T01:12:04;1.87;;;1.60;;
46308;SDS011;32037;50.820;6.494;2023-10-19T01:15:00;2.47;;;2.27;;
46308;SDS011;32037;50.820;6.494;2023-10-19T01:17:34;2.57;;;2.37;;
46308;SDS011;32037;50.820;6.494;2023-10-19T01:20:07;2.80;;;2.03;;
46308;SDS011;32037;50.820;6.494;2023-10-19T01:22:49;3.43;;;2.10;;
46308;SDS011;32037;50.820;6.494;2023-10-19T01:25:37;1.97;;;1.77;;
46308;SDS011;32037;50.820;6.494;2023-10-19T01:28:12;3.13;;;2.13;;
46308;SDS011;32037;50.820;6.494;2023-10-19T01:30:43;2.37;;;2.03;;
46308;SDS011;32037;50.820;6.494;2023-10-19T01:33:18;2.90;;;2.60;;
46308;SDS011;32037;50.820;6.494;2023-10-19T01:35:47;2.60;;;2.10;;
46308;SDS011;32037;50.820;6.494;2023-10-19T01:38:34;1.77;;;1.67;;
46308;SDS011;32037;50.820;6.494;2023-10-19T01:41:03;2.90;;;2.10;;
46308;SDS011;32037;50.820;6.494;2023-10-19T01:43:34;2.57;;;2.20;;
46308;SDS011;32037;50.820;6.494;2023-10-19T01:46:07;2.57;;;2.00;;
46308;SDS011;32037;50.820;6.494;2023-10-19T01:48:38;2.37;;;1.93;;
46308;SDS011;32037;50.820;6.494;2023-10-19T01:51:08;1.63;;;1.53;;
46308;SDS011;32037;50.820;6.494;2023-10-19T01:53:38;2.70;;;2.00;;
46308;SDS011;32037;50.820;6.494;2023-10-19T01:56:09;3.40;;;2.50;;
46308;SDS011;32037;50.820;6.494;2023-10-19T01:58:37;2.43;;;2.20;;
46308;SDS011;32037;50.820;6.494;2023-10-19T02:01:06;3.20;;;2.53;;
46308;SDS011;32037;50.820;6.494;2023-10-19T02:03:36;3.10;;;2.10;;
46308;SDS011;32037;50.820;6.494;2023-10-19T02:06:08;2.13;;;1.93;;
46308;SDS011;32037;50.820;6.494;2023-10-19T02:08:48;2.20;;;2.00;;
46308;SDS011;32037;50.820;6.494;2023-10-19T02:11:21;1.90;;;1.70;;
46308;SDS011;32037;50.820;6.494;2023-10-19T02:13:49;1.97;;;1.80;;
46308;SDS011;32037;50.820;6.494;2023-10-19T02:16:19;5.73;;;2.10;;
46308;SDS011;32037;50.820;6.494;2023-10-19T02:18:50;2.50;;;2.20;;
46308;SDS011;32037;50.820;6.494;2023-10-19T02:21:18;2.23;;;2.03;;
46308;SDS011;32037;50.820;6.494;2023-10-19T02:23:51;2.13;;;1.47;;
46308;SDS011;32037;50.820;6.494;2023-10-19T02:26:18;2.87;;;1.57;;
46308;SDS011;32037;50.820;6.494;2023-10-19T02:28:49;3.20;;;2.03;;
46308;SDS011;32037;50.820;6.494;2023-10-19T02:31:17;2.47;;;2.13;;
46308;SDS011;32037;50.820;6.494;2023-10-19T02:33:48;2.10;;;1.40;;
46308;SDS011;32037;50.820;6.494;2023-10-19T02:36:18;2.30;;;1.57;;
46308;SDS011;32037;50.820;6.494;2023-10-19T02:38:47;2.10;;;1.90;;
46308;SDS011;32037;50.820;6.494;2023-10-19T02:41:20;2.57;;;1.70;;
46308;SDS011;32037;50.820;6.494;2023-10-19T02:43:47;2.20;;;1.60;;
46308;SDS011;32037;50.820;6.494;2023-10-19T02:46:27;2.73;;;1.70;;
46308;SDS011;32037;50.820;6.494;2023-10-19T02:48:55;1.60;;;1.50;;
46308;SDS011;32037;50.820;6.494;2023-10-19T02:51:23;1.57;;;1.47;;
46308;SDS011;32037;50.820;6.494;2023-10-19T02:53:52;2.47;;;2.10;;
46308;SDS011;32037;50.820;6.494;2023-10-19T02:56:22;1.90;;;1.53;;
46308;SDS011;32037;50.820;6.494;2023-10-19T02:58:50;2.90;;;1.77;;
46308;SDS011;32037;50.820;6.494;2023-10-19T03:01:19;1.90;;;1.40;;
46308;SDS011;32037;50.820;6.494;2023-10-19T03:03:51;2.40;;;1.37;;
46308;SDS011;32037;50.820;6.494;2023-10-19T03:06:21;2.57;;;1.50;;
46308;SDS011;32037;50.820;6.494;2023-10-19T03:08:49;2.23;;;1.83;;
46308;SDS011;32037;50.820;6.494;2023-10-19T03:11:25;2.40;;;1.73;;
46308;SDS011;32037;50.820;6.494;2023-10-19T03:13:54;1.67;;;1.57;;
46308;SDS011;32037;50.820;6.494;2023-10-19T03:16:23;2.00;;;1.80;;
46308;SDS011;32037;50.820;6.494;2023-10-19T03:18:53;2.27;;;1.80;;
46308;SDS011;32037;50.820;6.494;2023-10-19T03:21:21;3.00;;;1.50;;
46308;SDS011;32037;50.820;6.494;2023-10-19T03:23:53;1.87;;;1.60;;
46308;SDS011;32037;50.820;6.494;2023-10-19T03:26:23;1.60;;;1.50;;
46308;SDS011;32037;50.820;6.494;2023-10-19T03:28:58;1.53;;;1.40;;
46308;SDS011;32037;50.820;6.494;2023-10-19T03:31:30;2.33;;;1.53;;
46308;SDS011;32037;50.820;6.494;2023-10-19T03:33:59;2.20;;;1.60;;
46308;SDS011;32037;50.820;6.494;2023-10-19T03:36:31;2.23;;;1.47;;
46308;SDS011;32037;50.820;6.494;2023-10-19T03:39:00;2.03;;;1.50;;
46308;SDS011;32037;50.820;6.494;2023-10-19T03:41:40;2.10;;;1.50;;
46308;SDS011;32037;50.820;6.494;2023-10-19T03:44:12;1.73;;;1.33;;
46308;SDS011;32037;50.820;6.494;2023-10-19T03:46:45;2.40;;;1.57;;
46308;SDS011;32037;50.820;6.494;2023-10-19T03:49:27;1.80;;;1.70;;
46308;SDS011;32037;50.820;6.494;2023-10-19T03:52:05;1.90;;;1.60;;
46308;SDS011;32037;50.820;6.494;2023-10-19T03:54:48;1.37;;;1.20;;
46308;SDS011;32037;50.820;6.494;2023-10-19T03:57:18;1.53;;;1.27;;
46308;SDS011;32037;50.820;6.494;2023-10-19T03:59:52;1.87;;;1.60;;
46308;SDS011;32037;50.820;6.494;2023-10-19T04:02:24;1.73;;;1.30;;
46308;SDS011;32037;50.820;6.494;2023-10-19T04:04:56;2.17;;;1.30;;
46308;SDS011;32037;50.820;6.494;2023-10-19T04:07:25;1.40;;;1.23;;
46308;SDS011;32037;50.820;6.494;2023-10-19T04:09:54;1.40;;;1.20;;
46308;SDS011;32037;50.820;6.494;2023-10-19T04:12:36;2.03;;;1.40;;
46308;SDS011;32037;50.820;6.494;2023-10-19T04:15:10;2.73;;;1.40;;
46308;SDS011;32037;50.820;6.494;2023-10-19T04:17:40;1.73;;;1.60;;
46308;SDS011;32037;50.820;6.494;2023-10-19T04:20:09;2.30;;;1.77;;
46308;SDS011;32037;50.820;6.494;2023-10-19T04:22:54;1.40;;;1.20;;
46308;SDS011;32037;50.820;6.494;2023-10-19T04:25:25;1.90;;;1.07;;
46308;SDS011;32037;50.820;6.494;2023-10-19T04:27:53;1.70;;;1.40;;
46308;SDS011;32037;50.820;6.494;2023-10-19T04:30:25;1.67;;;1.20;;
46308;SDS011;32037;50.820;6.494;2023-10-19T04:32:53;1.33;;;1.07;;
46308;SDS011;32037;50.820;6.494;2023-10-19T04:35:24;1.80;;;1.10;;
46308;SDS011;32037;50.820;6.494;2023-10-19T04:37:56;2.17;;;1.20;;
46308;SDS011;32037;50.820;6.494;2023-10-19T04:40:26;2.13;;;1.40;;
46308;SDS011;32037;50.820;6.494;2023-10-19T04:42:55;1.80;;;1.40;;
46308;SDS011;32037;50.820;6.494;2023-10-19T04:45:24;2.20;;;1.30;;
46308;SDS011;32037;50.820;6.494;2023-10-19T04:47:53;1.43;;;1.10;;
46308;SDS011;32037;50.820;6.494;2023-10-19T04:50:21;2.27;;;1.30;;
46308;SDS011;32037;50.820;6.494;2023-10-19T04:52:50;1.70;;;1.27;;
46308;SDS011;32037;50.820;6.494;2023-10-19T04:55:18;1.70;;;1.27;;
46308;SDS011;32037;50.820;6.494;2023-10-19T04:57:46;1.93;;;1.20;;
46308;SDS011;32037;50.820;6.494;2023-10-19T05:00:16;4.90;;;1.23;;
46308;SDS011;32037;50.820;6.494;2023-10-19T05:02:48;1.80;;;1.10;;
46308;SDS011;32037;50.820;6.494;2023-10-19T05:05:18;1.57;;;1.10;;
46308;SDS011;32037;50.820;6.494;2023-10-19T05:07:47;1.60;;;1.20;;
46308;SDS011;32037;50.820;6.494;2023-10-19T05:10:15;1.77;;;1.23;;
46308;SDS011;32037;50.820;6.494;2023-10-19T05:12:43;1.40;;;1.10;;
46308;SDS011;32037;50.820;6.494;2023-10-19T05:15:12;1.57;;;1.30;;
46308;SDS011;32037;50.820;6.494;2023-10-19T05:17:42;1.60;;;1.10;;
46308;SDS011;32037;50.820;6.494;2023-10-19T05:20:12;1.40;;;1.10;;
46308;SDS011;32037;50.820;6.494;2023-10-19T05:22:40;2.90;;;1.47;;
46308;SDS011;32037;50.820;6.494;2023-10-19T05:25:08;1.50;;;1.20;;
46308;SDS011;32037;50.820;6.494;2023-10-19T05:27:37;1.87;;;1.30;;
46308;SDS011;32037;50.820;6.494;2023-10-19T05:30:05;2.07;;;1.47;;
46308;SDS011;32037;50.820;6.494;2023-10-19T05:32:36;2.13;;;1.00;;
46308;SDS011;32037;50.820;6.494;2023-10-19T05:35:05;2.13;;;1.60;;
46308;SDS011;32037;50.820;6.494;2023-10-19T05:37:35;1.27;;;1.17;;
46308;SDS011;32037;50.820;6.494;2023-10-19T05:40:03;3.70;;;1.80;;
46308;SDS011;32037;50.820;6.494;2023-10-19T05:42:39;1.43;;;1.03;;
46308;SDS011;32037;50.820;6.494;2023-10-19T05:45:07;1.57;;;1.10;;
46308;SDS011;32037;50.820;6.494;2023-10-19T05:47:39;1.80;;;1.30;;
46308;SDS011;32037;50.820;6.494;2023-10-19T05:50:08;1.27;;;1.00;;
46308;SDS011;32037;50.820;6.494;2023-10-19T05:52:41;1.40;;;1.07;;
46308;SDS011;32037;50.820;6.494;2023-10-19T05:55:10;2.47;;;1.03;;
46308;SDS011;32037;50.820;6.494;2023-10-19T05:57:38;1.67;;;1.40;;
46308;SDS011;32037;50.820;6.494;2023-10-19T06:00:08;1.60;;;1.10;;
46308;SDS011;32037;50.820;6.494;2023-10-19T06:02:41;1.63;;;1.53;;
46308;SDS011;32037;50.820;6.494;2023-10-19T06:05:12;1.50;;;1.10;;
46308;SDS011;32037;50.820;6.494;2023-10-19T06:07:43;1.40;;;1.10;;
46308;SDS011;32037;50.820;6.494;2023-10-19T06:10:14;1.20;;;0.80;;
46308;SDS011;32037;50.820;6.494;2023-10-19T06:12:45;2.40;;;1.20;;
46308;SDS011;32037;50.820;6.494;2023-10-19T06:15:14;2.27;;;1.80;;
46308;SDS011;32037;50.820;6.494;2023-10-19T06:17:43;1.57;;;1.30;;
46308;SDS011;32037;50.820;6.494;2023-10-19T06:20:13;1.90;;;1.57;;
46308;SDS011;32037;50.820;6.494;2023-10-19T06:22:52;2.20;;;1.40;;
46308;SDS011;32037;50.820;6.494;2023-10-19T06:25:23;1.03;;;0.80;;
46308;SDS011;32037;50.820;6.494;2023-10-19T06:27:52;1.17;;;1.07;;
46308;SDS011;32037;50.820;6.494;2023-10-19T06:30:24;1.43;;;1.33;;
46308;SDS011;32037;50.820;6.494;2023-10-19T06:32:54;1.20;;;1.10;;
46308;SDS011;32037;50.820;6.494;2023-10-19T06:35:24;1.23;;;1.10;;
46308;SDS011;32037;50.820;6.494;2023-10-19T06:37:54;3.50;;;1.30;;
46308;SDS011;32037;50.820;6.494;2023-10-19T06:40:23;1.30;;;0.97;;
46308;SDS011;32037;50.820;6.494;2023-10-19T06:42:54;1.73;;;1.10;;
46308;SDS011;32037;50.820;6.494;2023-10-19T06:45:23;1.77;;;1.07;;
46308;SDS011;32037;50.820;6.494;2023-10-19T06:47:53;2.03;;;1.43;;
46308;SDS011;32037;50.820;6.494;2023-10-19T06:50:21;1.50;;;1.10;;
46308;SDS011;32037;50.820;6.494;2023-10-19T06:52:51;1.50;;;1.10;;
46308;SDS011;32037;50.820;6.494;2023-10-19T06:55:22;1.40;;;1.30;;
46308;SDS011;32037;50.820;6.494;2023-10-19T06:57:52;1.50;;;1.00;;
46308;SDS011;32037;50.820;6.494;2023-10-19T07:00:23;2.30;;;1.10;;
46308;SDS011;32037;50.820;6.494;2023-10-19T07:02:54;1.27;;;1.03;;
46308;SDS011;32037;50.820;6.494;2023-10-19T07:05:23;1.93;;;1.10;;
46308;SDS011;32037;50.820;6.494;2023-10-19T07:07:52;1.60;;;1.20;;
46308;SDS011;32037;50.820;6.494;2023-10-19T07:10:23;2.20;;;1.20;;
46308;SDS011;32037;50.820;6.494;2023-10-19T07:12:52;3.63;;;1.30;;
46308;SDS011;32037;50.820;6.494;2023-10-19T07:15:21;1.30;;;1.00;;
46308;SDS011;32037;50.820;6.494;2023-10-19T07:17:51;2.00;;;1.03;;
46308;SDS011;32037;50.820;6.494;2023-10-19T07:20:21;1.10;;;0.97;;
46308;SDS011;32037;50.820;6.494;2023-10-19T07:22:55;1.50;;;1.00;;
46308;SDS011;32037;50.820;6.494;2023-10-19T07:25:27;1.93;;;1.50;;
46308;SDS011;32037;50.820;6.494;2023-10-19T07:27:56;2.50;;;1.20;;
46308;SDS011;32037;50.820;6.494;2023-10-19T07:30:26;2.40;;;1.63;;
46308;SDS011;32037;50.820;6.494;2023-10-19T07:32:55;2.10;;;1.63;;
46308;SDS011;32037;50.820;6.494;2023-10-19T07:35:25;2.17;;;1.20;;
46308;SDS011;32037;50.820;6.494;2023-10-19T07:37:55;1.30;;;1.20;;
46308;SDS011;32037;50.820;6.494;2023-10-19T07:40:24;1.47;;;1.27;;
46308;SDS011;32037;50.820;6.494;2023-10-19T07:42:52;2.13;;;1.30;;
46308;SDS011;32037;50.820;6.494;2023-10-19T07:45:21;2.23;;;1.20;;
46308;SDS011;32037;50.820;6.494;2023-10-19T07:47:49;1.40;;;1.00;;
46308;SDS011;32037;50.820;6.494;2023-10-19T07:50:18;1.67;;;1.17;;
46308;SDS011;32037;50.820;6.494;2023-10-19T07:52:50;1.70;;;1.30;;
46308;SDS011;32037;50.820;6.494;2023-10-19T07:55:22;1.20;;;1.00;;
46308;SDS011;32037;50.820;6.494;2023-10-19T07:57:50;1.40;;;0.70;;
46308;SDS011;32037;50.820;6.494;2023-10-19T08:00:20;1.20;;;1.10;;
46308;SDS011;32037;50.820;6.494;2023-10-19T08:02:51;1.50;;;1.00;;
46308;SDS011;32037;50.820;6.494;2023-10-19T08:05:20;1.30;;;1.00;;
46308;SDS011;32037;50.820;6.494;2023-10-19T08:07:49;2.60;;;1.47;;
46308;SDS011;32037;50.820;6.494;2023-10-19T08:10:18;1.67;;;1.33;;
46308;SDS011;32037;50.820;6.494;2023-10-19T08:12:49;2.30;;;0.97;;
46308;SDS011;32037;50.820;6.494;2023-10-19T08:15:18;1.50;;;1.00;;
46308;SDS011;32037;50.820;6.494;2023-10-19T08:17:48;3.60;;;1.20;;
46308;SDS011;32037;50.820;6.494;2023-10-19T08:20:30;1.30;;;1.00;;
46308;SDS011;32037;50.820;6.494;2023-10-19T08:22:59;1.40;;;1.03;;
46308;SDS011;32037;50.820;6.494;2023-10-19T08:25:29;1.33;;;1.00;;
46308;SDS011;32037;50.820;6.494;2023-10-19T08:28:02;1.50;;;1.03;;
46308;SDS011;32037;50.820;6.494;2023-10-19T08:30:31;1.53;;;1.20;;
46308;SDS011;32037;50.820;6.494;2023-10-19T08:33:00;1.13;;;0.90;;
46308;SDS011;32037;50.820;6.494;2023-10-19T08:35:28;1.33;;;0.90;;
46308;SDS011;32037;50.820;6.494;2023-10-19T08:37:57;1.20;;;1.07;;
46308;SDS011;32037;50.820;6.494;2023-10-19T08:40:25;1.90;;;0.87;;
46308;SDS011;32037;50.820;6.494;2023-10-19T08:42:54;1.83;;;0.90;;
46308;SDS011;32037;50.820;6.494;2023-10-19T08:45:24;1.30;;;0.80;;
46308;SDS011;32037;50.820;6.494;2023-10-19T08:47:53;3.23;;;1.17;;
46308;SDS011;32037;50.820;6.494;2023-10-19T08:50:24;1.50;;;0.87;;
46308;SDS011;32037;50.820;6.494;2023-10-19T08:52:56;1.10;;;0.80;;
46308;SDS011;32037;50.820;6.494;2023-10-19T08:55:25;1.47;;;1.03;;
46308;SDS011;32037;50.820;6.494;2023-10-19T08:58:14;1.20;;;0.97;;
46308;SDS011;32037;50.820;6.494;2023-10-19T09:00:47;1.47;;;1.10;;
46308;SDS011;32037;50.820;6.494;2023-10-19T09:03:18;1.20;;;1.10;;
46308;SDS011;32037;50.820;6.494;2023-10-19T09:05:48;1.20;;;1.00;;
46308;SDS011;32037;50.820;6.494;2023-10-19T09:08:17;1.27;;;0.90;;
46308;SDS011;32037;50.820;6.494;2023-10-19T09:10:49;2.27;;;1.40;;
46308;SDS011;32037;50.820;6.494;2023-10-19T09:13:20;1.43;;;1.00;;
46308;SDS011;32037;50.820;6.494;2023-10-19T09:15:52;1.50;;;1.13;;
46308;SDS011;32037;50.820;6.494;2023-10-19T09:18:23;1.33;;;0.87;;
46308;SDS011;32037;50.820;6.494;2023-10-19T09:20:55;1.10;;;0.90;;
46308;SDS011;32037;50.820;6.494;2023-10-19T09:23:29;1.60;;;1.10;;
46308;SDS011;32037;50.820;6.494;2023-10-19T09:25:59;1.10;;;0.90;;
46308;SDS011;32037;50.820;6.494;2023-10-19T09:28:29;1.53;;;1.00;;
46308;SDS011;32037;50.820;6.494;2023-10-19T09:31:02;1.47;;;0.80;;
46308;SDS011;32037;50.820;6.494;2023-10-19T09:33:31;1.70;;;0.87;;
46308;SDS011;32037;50.820;6.494;2023-10-19T09:36:02;1.43;;;0.90;;
46308;SDS011;32037;50.820;6.494;2023-10-19T09:38:39;1.10;;;0.80;;
46308;SDS011;32037;50.820;6.494;2023-10-19T09:41:11;1.30;;;1.20;;
46308;SDS011;32037;50.820;6.494;2023-10-19T09:43:42;1.97;;;1.17;;
46308;SDS011;32037;50.820;6.494;2023-10-19T09:46:15;0.90;;;0.77;;
46308;SDS011;32037;50.820;6.494;2023-10-19T09:48:48;1.00;;;0.70;;
46308;SDS011;32037;50.820;6.494;2023-10-19T09:51:18;1.90;;;1.00;;
46308;SDS011;32037;50.820;6.494;2023-10-19T09:53:48;2.93;;;1.00;;
46308;SDS011;32037;50.820;6.494;2023-10-19T09:56:21;1.30;;;1.00;;
46308;SDS011;32037;50.820;6.494;2023-10-19T09:58:54;3.37;;;1.10;;
46308;SDS011;32037;50.820;6.494;2023-10-19T10:01:29;1.47;;;0.87;;
46308;SDS011;32037;50.820;6.494;2023-10-19T10:04:32;2.30;;;1.00;;
46308;SDS011;32037;50.820;6.494;2023-10-19T10:07:02;1.23;;;0.83;;
46308;SDS011;32037;50.820;6.494;2023-10-19T10:09:34;1.30;;;1.20;;
46308;SDS011;32037;50.820;6.494;2023-10-19T10:12:16;1.97;;;1.10;;
46308;SDS011;32037;50.820;6.494;2023-10-19T10:14:55;2.10;;;0.90;;
46308;SDS011;32037;50.820;6.494;2023-10-19T10:17:26;1.77;;;1.00;;
46308;SDS011;32037;50.820;6.494;2023-10-19T10:19:56;1.30;;;0.77;;
46308;SDS011;32037;50.820;6.494;2023-10-19T10:22:39;1.17;;;0.90;;
46308;SDS011;32037;50.820;6.494;2023-10-19T10:25:08;1.47;;;0.87;;
46308;SDS011;32037;50.820;6.494;2023-10-19T10:27:54;1.70;;;1.03;;
46308;SDS011;32037;50.820;6.494;2023-10-19T10:30:23;1.50;;;0.90;;
46308;SDS011;32037;50.820;6.494;2023-10-19T10:32:53;1.10;;;0.90;;
46308;SDS011;32037;50.820;6.494;2023-10-19T10:38:25;1.10;;;0.70;;
46308;SDS011;32037;50.820;6.494;2023-10-19T10:41:01;1.30;;;1.20;;
46308;SDS011;32037;50.820;6.494;2023-10-19T10:43:30;1.27;;;1.10;;
46308;SDS011;32037;50.820;6.494;2023-10-19T10:46:02;3.30;;;0.80;;
46308;SDS011;32037;50.820;6.494;2023-10-19T10:48:33;1.70;;;1.03;;
46308;SDS011;32037;50.820;6.494;2023-10-19T10:51:02;1.10;;;0.97;;
46308;SDS011;32037;50.820;6.494;2023-10-19T10:53:30;1.67;;;1.17;;
46308;SDS011;32037;50.820;6.494;2023-10-19T10:55:59;1.67;;;0.87;;
46308;SDS011;32037;50.820;6.494;2023-10-19T10:58:28;1.40;;;0.97;;
46308;SDS011;32037;50.820;6.494;2023-10-19T11:00:56;2.73;;;1.37;;
46308;SDS011;32037;50.820;6.494;2023-10-19T11:03:24;1.30;;;0.90;;
46308;SDS011;32037;50.820;6.494;2023-10-19T11:06:03;1.70;;;0.90;;
46308;SDS011;32037;50.820;6.494;2023-10-19T11:08:34;1.83;;;1.10;;
46308;SDS011;32037;50.820;6.494;2023-10-19T11:11:04;1.10;;;0.90;;
46308;SDS011;32037;50.820;6.494;2023-10-19T11:13:37;1.63;;;1.20;;
46308;SDS011;32037;50.820;6.494;2023-10-19T11:16:06;1.20;;;0.77;;
46308;SDS011;32037;50.820;6.494;2023-10-19T11:18:36;1.50;;;0.97;;
46308;SDS011;32037;50.820;6.494;2023-10-19T11:21:08;2.17;;;1.20;;
46308;SDS011;32037;50.820;6.494;2023-10-19T11:23:38;1.10;;;0.97;;
46308;SDS011;32037;50.820;6.494;2023-10-19T11:26:09;1.53;;;1.20;;
46308;SDS011;32037;50.820;6.494;2023-10-19T11:28:39;2.60;;;0.83;;
46308;SDS011;32037;50.820;6.494;2023-10-19T11:31:14;1.37;;;1.10;;
46308;SDS011;32037;50.820;6.494;2023-10-19T11:33:44;1.63;;;0.73;;
46308;SDS011;32037;50.820;6.494;2023-10-19T11:36:16;1.27;;;0.90;;
46308;SDS011;32037;50.820;6.494;2023-10-19T11:38:47;1.50;;;0.90;;
46308;SDS011;32037;50.820;6.494;2023-10-19T11:41:16;2.87;;;1.37;;
46308;SDS011;32037;50.820;6.494;2023-10-19T11:43:45;2.60;;;1.17;;
46308;SDS011;32037;50.820;6.494;2023-10-19T11:46:15;1.83;;;0.80;;
46308;SDS011;32037;50.820;6.494;2023-10-19T11:48:45;3.07;;;0.77;;
46308;SDS011;32037;50.820;6.494;2023-10-19T11:51:13;3.13;;;1.10;;
46308;SDS011;32037;50.820;6.494;2023-10-19T11:53:43;2.03;;;0.90;;
46308;SDS011;32037;50.820;6.494;2023-10-19T11:56:12;3.43;;;1.37;;
46308;SDS011;32037;50.820;6.494;2023-10-19T11:58:42;1.00;;;0.87;;
46308;SDS011;32037;50.820;6.494;2023-10-19T12:01:14;1.30;;;0.97;;
46308;SDS011;32037;50.820;6.494;2023-10-19T12:03:45;3.10;;;1.10;;
46308;SDS011;32037;50.820;6.494;2023-10-19T12:06:15;1.60;;;0.90;;
46308;SDS011;32037;50.820;6.494;2023-10-19T12:11:41;1.80;;;1.10;;
46308;SDS011;32037;50.820;6.494;2023-10-19T12:14:13;1.20;;;0.63;;
46308;SDS011;32037;50.820;6.494;2023-10-19T12:16:42;1.60;;;0.93;;
46308;SDS011;32037;50.820;6.494;2023-10-19T12:19:12;1.40;;;0.90;;
46308;SDS011;32037;50.820;6.494;2023-10-19T12:21:43;1.60;;;0.80;;
46308;SDS011;32037;50.820;6.494;2023-10-19T12:24:13;1.40;;;0.87;;
46308;SDS011;32037;50.820;6.494;2023-10-19T12:26:42;1.10;;;0.80;;
46308;SDS011;32037;50.820;6.494;2023-10-19T12:29:11;1.93;;;1.27;;
46308;SDS011;32037;50.820;6.494;2023-10-19T12:31:43;1.80;;;1.10;;
46308;SDS011;32037;50.820;6.494;2023-10-19T12:34:13;2.47;;;1.10;;
46308;SDS011;32037;50.820;6.494;2023-10-19T12:36:43;2.53;;;1.07;;
46308;SDS011;32037;50.820;6.494;2023-10-19T12:39:14;1.90;;;0.93;;
46308;SDS011;32037;50.820;6.494;2023-10-19T12:42:02;1.77;;;1.10;;
46308;SDS011;32037;50.820;6.494;2023-10-19T12:44:31;2.27;;;1.00;;
46308;SDS011;32037;50.820;6.494;2023-10-19T12:47:05;4.37;;;1.23;;
46308;SDS011;32037;50.820;6.494;2023-10-19T12:49:36;1.80;;;1.10;;
46308;SDS011;32037;50.820;6.494;2023-10-19T12:52:05;1.27;;;0.87;;
46308;SDS011;32037;50.820;6.494;2023-10-19T12:54:35;2.13;;;1.10;;
46308;SDS011;32037;50.820;6.494;2023-10-19T12:57:04;1.30;;;0.80;;
46308;SDS011;32037;50.820;6.494;2023-10-19T12:59:34;1.13;;;0.73;;
46308;SDS011;32037;50.820;6.494;2023-10-19T13:02:04;1.53;;;0.60;;
46308;SDS011;32037;50.820;6.494;2023-10-19T13:04:35;1.67;;;0.90;;
46308;SDS011;32037;50.820;6.494;2023-10-19T13:07:04;2.30;;;1.23;;
46308;SDS011;32037;50.820;6.494;2023-10-19T13:09:33;4.70;;;1.33;;
46308;SDS011;32037;50.820;6.494;2023-10-19T13:12:03;2.27;;;0.80;;
46308;SDS011;32037;50.820;6.494;2023-10-19T13:14:34;1.43;;;1.07;;
46308;SDS011;32037;50.820;6.494;2023-10-19T13:17:02;2.10;;;1.20;;
46308;SDS011;32037;50.820;6.494;2023-10-19T13:19:30;1.20;;;0.93;;
46308;SDS011;32037;50.820;6.494;2023-10-19T13:21:59;2.30;;;0.83;;
46308;SDS011;32037;50.820;6.494;2023-10-19T13:24:31;1.40;;;0.90;;
46308;SDS011;32037;50.820;6.494;2023-10-19T13:27:08;1.20;;;0.90;;
46308;SDS011;32037;50.820;6.494;2023-10-19T13:29:37;2.17;;;1.20;;
46308;SDS011;32037;50.820;6.494;2023-10-19T13:32:08;1.30;;;0.83;;
46308;SDS011;32037;50.820;6.494;2023-10-19T13:34:37;1.63;;;0.83;;
46308;SDS011;32037;50.820;6.494;2023-10-19T13:37:07;3.37;;;1.27;;
46308;SDS011;32037;50.820;6.494;2023-10-19T13:39:35;1.70;;;1.07;;
46308;SDS011;32037;50.820;6.494;2023-10-19T13:42:05;1.60;;;1.40;;
46308;SDS011;32037;50.820;6.494;2023-10-19T13:44:37;1.90;;;0.83;;
46308;SDS011;32037;50.820;6.494;2023-10-19T13:47:05;1.97;;;1.17;;
46308;SDS011;32037;50.820;6.494;2023-10-19T13:49:35;2.50;;;1.27;;
46308;SDS011;32037;50.820;6.494;2023-10-19T13:52:03;2.80;;;1.10;;
46308;SDS011;32037;50.820;6.494;2023-10-19T13:54:32;1.20;;;0.90;;
46308;SDS011;32037;50.820;6.494;2023-10-19T13:57:00;2.00;;;1.07;;
46308;SDS011;32037;50.820;6.494;2023-10-19T13:59:28;1.53;;;1.10;;
46308;SDS011;32037;50.820;6.494;2023-10-19T14:02:01;3.00;;;1.60;;
46308;SDS011;32037;50.820;6.494;2023-10-19T14:04:29;2.07;;;1.20;;
46308;SDS011;32037;50.820;6.494;2023-10-19T14:06:57;1.50;;;1.03;;
46308;SDS011;32037;50.820;6.494;2023-10-19T14:09:26;1.70;;;0.80;;
46308;SDS011;32037;50.820;6.494;2023-10-19T14:11:57;2.23;;;1.70;;
46308;SDS011;32037;50.820;6.494;2023-10-19T14:14:25;2.53;;;1.03;;
46308;SDS011;32037;50.820;6.494;2023-10-19T14:16:53;2.70;;;1.30;;
46308;SDS011;32037;50.820;6.494;2023-10-19T14:19:23;1.67;;;1.20;;
46308;SDS011;32037;50.820;6.494;2023-10-19T14:21:52;2.40;;;1.40;;
46308;SDS011;32037;50.820;6.494;2023-10-19T14:24:20;2.50;;;1.30;;
46308;SDS011;32037;50.820;6.494;2023-10-19T14:26:48;1.70;;;1.20;;
46308;SDS011;32037;50.820;6.494;2023-10-19T14:29:16;1.20;;;0.97;;
46308;SDS011;32037;50.820;6.494;2023-10-19T14:31:44;1.83;;;1.00;;
46308;SDS011;32037;50.820;6.494;2023-10-19T14:34:12;1.50;;;1.20;;
46308;SDS011;32037;50.820;6.494;2023-10-19T14:36:42;2.30;;;1.67;;
46308;SDS011;32037;50.820;6.494;2023-10-19T14:39:10;1.90;;;1.30;;
46308;SDS011;32037;50.820;6.494;2023-10-19T14:41:41;1.90;;;1.30;;
46308;SDS011;32037;50.820;6.494;2023-10-19T14:44:09;1.70;;;1.07;;
46308;SDS011;32037;50.820;6.494;2023-10-19T14:46:38;2.87;;;1.43;;
46308;SDS011;32037;50.820;6.494;2023-10-19T14:49:06;3.40;;;1.50;;
46308;SDS011;32037;50.820;6.494;2023-10-19T14:51:34;2.50;;;1.10;;
46308;SDS011;32037;50.820;6.494;2023-10-19T14:54:03;1.30;;;0.90;;
46308;SDS011;32037;50.820;6.494;2023-10-19T14:56:32;2.90;;;1.73;;
46308;SDS011;32037;50.820;6.494;2023-10-19T14:59:00;4.30;;;1.43;;
46308;SDS011;32037;50.820;6.494;2023-10-19T15:01:31;3.03;;;1.90;;
46308;SDS011;32037;50.820;6.494;2023-10-19T15:03:59;1.63;;;1.03;;
46308;SDS011;32037;50.820;6.494;2023-10-19T15:06:27;2.40;;;1.20;;
46308;SDS011;32037;50.820;6.494;2023-10-19T15:09:01;3.07;;;1.37;;
46308;SDS011;32037;50.820;6.494;2023-10-19T15:11:31;2.00;;;1.27;;
46308;SDS011;32037;50.820;6.494;2023-10-19T15:13:59;2.23;;;1.63;;
46308;SDS011;32037;50.820;6.494;2023-10-19T15:16:30;1.63;;;1.07;;